sensor_id;sensor_type;location;lat;lon;timestamp;P1;durP1;ratioP1;P2;durP2;ratioP2
22697;SDS011;11516;51.612;7.510;2022-10-16T00:01:21;10.50;;;5.60;;
22697;SDS011;11516;51.612;7.510;2022-10-16T00:03:48;10.05;;;5.80;;
22697;SDS011;11516;51.612;7.510;2022-10-16T00:06:15;11.02;;;6.38;;
22697;SDS011;11516;51.612;7.510;2022-10-16T00:08:42;10.73;;;5.60;;
22697;SDS011;11516;51.612;7.510;2022-10-16T00:11:10;10.63;;;6.57;;
22697;SDS011;11516;51.612;7.510;2022-10-16T00:13:42;10.13;;;6.15;;
22697;SDS011;11516;51.612;7.510;2022-10-16T00:16:09;8.50;;;6.25;;
22697;SDS011;11516;51.612;7.510;2022-10-16T00:18:36;12.02;;;6.75;;
22697;SDS011;11516;51.612;7.510;2022-10-16T00:21:06;13.93;;;6.80;;
22697;SDS011;11516;51.612;7.510;2022-10-16T00:23:34;10.30;;;6.05;;
22697;SDS011;11516;51.612;7.510;2022-10-16T00:26:01;9.93;;;5.70;;
22697;SDS011;11516;51.612;7.510;2022-10-16T00:28:30;9.20;;;5.00;;
22697;SDS011;11516;51.612;7.510;2022-10-16T00:30:56;8.93;;;4.30;;
22697;SDS011;11516;51.612;7.510;2022-10-16T00:33:22;9.55;;;4.78;;
22697;SDS011;11516;51.612;7.510;2022-10-16T00:35:48;7.43;;;4.40;;
22697;SDS011;11516;51.612;7.510;2022-10-16T00:38:15;8.00;;;4.70;;
22697;SDS011;11516;51.612;7.510;2022-10-16T00:40:40;8.48;;;4.18;;
22697;SDS011;11516;51.612;7.510;2022-10-16T00:46:00;10.67;;;6.67;;
22697;SDS011;11516;51.612;7.510;2022-10-16T00:48:28;12.50;;;8.38;;
22697;SDS011;11516;51.612;7.510;2022-10-16T00:50:54;14.98;;;8.98;;
22697;SDS011;11516;51.612;7.510;2022-10-16T00:53:21;12.98;;;7.32;;
22697;SDS011;11516;51.612;7.510;2022-10-16T00:55:51;11.35;;;6.90;;
22697;SDS011;11516;51.612;7.510;2022-10-16T00:58:17;10.43;;;6.68;;
22697;SDS011;11516;51.612;7.510;2022-10-16T01:00:43;14.10;;;7.20;;
22697;SDS011;11516;51.612;7.510;2022-10-16T01:03:25;10.73;;;6.93;;
22697;SDS011;11516;51.612;7.510;2022-10-16T01:09:02;15.38;;;9.23;;
22697;SDS011;11516;51.612;7.510;2022-10-16T01:12:01;20.83;;;11.03;;
22697;SDS011;11516;51.612;7.510;2022-10-16T01:14:47;20.80;;;11.10;;
22697;SDS011;11516;51.612;7.510;2022-10-16T01:17:37;23.45;;;11.50;;
22697;SDS011;11516;51.612;7.510;2022-10-16T01:28:32;9.88;;;4.88;;
22697;SDS011;11516;51.612;7.510;2022-10-16T01:31:03;5.47;;;3.53;;
22697;SDS011;11516;51.612;7.510;2022-10-16T01:33:40;5.10;;;3.65;;
22697;SDS011;11516;51.612;7.510;2022-10-16T01:36:13;7.95;;;4.40;;
22697;SDS011;11516;51.612;7.510;2022-10-16T01:38:42;12.30;;;7.18;;
22697;SDS011;11516;51.612;7.510;2022-10-16T01:41:14;16.38;;;9.20;;
22697;SDS011;11516;51.612;7.510;2022-10-16T01:43:44;19.70;;;9.48;;
22697;SDS011;11516;51.612;7.510;2022-10-16T01:46:20;16.60;;;10.00;;
22697;SDS011;11516;51.612;7.510;2022-10-16T01:48:47;13.60;;;7.67;;
22697;SDS011;11516;51.612;7.510;2022-10-16T01:51:14;13.55;;;6.50;;
22697;SDS011;11516;51.612;7.510;2022-10-16T01:53:43;11.93;;;5.65;;
22697;SDS011;11516;51.612;7.510;2022-10-16T01:56:13;10.30;;;6.20;;
22697;SDS011;11516;51.612;7.510;2022-10-16T01:58:45;9.30;;;5.35;;
22697;SDS011;11516;51.612;7.510;2022-10-16T02:01:18;11.02;;;4.82;;
22697;SDS011;11516;51.612;7.510;2022-10-16T02:03:46;7.55;;;4.40;;
22697;SDS011;11516;51.612;7.510;2022-10-16T02:06:18;6.20;;;3.60;;
22697;SDS011;11516;51.612;7.510;2022-10-16T02:08:44;6.32;;;3.20;;
22697;SDS011;11516;51.612;7.510;2022-10-16T02:11:10;5.07;;;2.90;;
22697;SDS011;11516;51.612;7.510;2022-10-16T02:13:37;5.18;;;2.90;;
22697;SDS011;11516;51.612;7.510;2022-10-16T02:16:10;5.90;;;3.15;;
22697;SDS011;11516;51.612;7.510;2022-10-16T02:18:37;7.88;;;3.75;;
22697;SDS011;11516;51.612;7.510;2022-10-16T02:23:51;6.93;;;3.93;;
22697;SDS011;11516;51.612;7.510;2022-10-16T02:29:33;4.88;;;3.42;;
22697;SDS011;11516;51.612;7.510;2022-10-16T02:32:04;7.03;;;3.60;;
22697;SDS011;11516;51.612;7.510;2022-10-16T02:34:32;7.85;;;4.90;;
22697;SDS011;11516;51.612;7.510;2022-10-16T02:36:59;8.18;;;5.25;;
22697;SDS011;11516;51.612;7.510;2022-10-16T02:39:27;8.35;;;4.85;;
22697;SDS011;11516;51.612;7.510;2022-10-16T02:41:54;7.30;;;4.93;;
22697;SDS011;11516;51.612;7.510;2022-10-16T02:44:20;7.40;;;4.32;;
22697;SDS011;11516;51.612;7.510;2022-10-16T02:46:45;5.72;;;3.38;;
22697;SDS011;11516;51.612;7.510;2022-10-16T02:49:11;4.88;;;2.88;;
22697;SDS011;11516;51.612;7.510;2022-10-16T02:51:37;5.73;;;3.37;;
22697;SDS011;11516;51.612;7.510;2022-10-16T02:54:02;6.27;;;2.90;;
22697;SDS011;11516;51.612;7.510;2022-10-16T02:56:28;3.42;;;2.33;;
22697;SDS011;11516;51.612;7.510;2022-10-16T02:58:54;3.75;;;2.55;;
22697;SDS011;11516;51.612;7.510;2022-10-16T03:01:20;7.63;;;4.10;;
22697;SDS011;11516;51.612;7.510;2022-10-16T03:03:46;9.02;;;5.70;;
22697;SDS011;11516;51.612;7.510;2022-10-16T03:06:12;6.57;;;3.90;;
22697;SDS011;11516;51.612;7.510;2022-10-16T03:08:38;3.08;;;2.58;;
22697;SDS011;11516;51.612;7.510;2022-10-16T03:11:03;4.57;;;2.67;;
22697;SDS011;11516;51.612;7.510;2022-10-16T03:13:29;3.15;;;2.20;;
22697;SDS011;11516;51.612;7.510;2022-10-16T03:15:57;1.63;;;1.52;;
22697;SDS011;11516;51.612;7.510;2022-10-16T03:18:23;2.38;;;2.10;;
22697;SDS011;11516;51.612;7.510;2022-10-16T03:20:48;6.50;;;2.40;;
22697;SDS011;11516;51.612;7.510;2022-10-16T03:23:14;5.82;;;3.08;;
22697;SDS011;11516;51.612;7.510;2022-10-16T03:25:40;7.23;;;3.70;;
22697;SDS011;11516;51.612;7.510;2022-10-16T03:28:05;6.00;;;3.43;;
22697;SDS011;11516;51.612;7.510;2022-10-16T03:30:31;8.47;;;4.03;;
22697;SDS011;11516;51.612;7.510;2022-10-16T03:32:57;7.28;;;3.97;;
22697;SDS011;11516;51.612;7.510;2022-10-16T03:35:23;5.47;;;2.88;;
22697;SDS011;11516;51.612;7.510;2022-10-16T03:37:49;5.45;;;2.90;;
22697;SDS011;11516;51.612;7.510;2022-10-16T03:40:15;5.32;;;2.60;;
22697;SDS011;11516;51.612;7.510;2022-10-16T03:42:44;4.57;;;2.42;;
22697;SDS011;11516;51.612;7.510;2022-10-16T03:45:10;2.58;;;1.75;;
22697;SDS011;11516;51.612;7.510;2022-10-16T03:47:36;4.45;;;2.00;;
22697;SDS011;11516;51.612;7.510;2022-10-16T03:50:02;4.22;;;2.55;;
22697;SDS011;11516;51.612;7.510;2022-10-16T03:52:28;4.28;;;2.17;;
22697;SDS011;11516;51.612;7.510;2022-10-16T03:54:53;8.25;;;2.70;;
22697;SDS011;11516;51.612;7.510;2022-10-16T03:57:19;5.55;;;2.92;;
22697;SDS011;11516;51.612;7.510;2022-10-16T03:59:45;7.63;;;4.03;;
22697;SDS011;11516;51.612;7.510;2022-10-16T04:02:11;6.18;;;3.35;;
22697;SDS011;11516;51.612;7.510;2022-10-16T04:04:37;6.43;;;3.25;;
22697;SDS011;11516;51.612;7.510;2022-10-16T04:07:02;6.27;;;3.00;;
22697;SDS011;11516;51.612;7.510;2022-10-16T04:09:28;3.90;;;2.57;;
22697;SDS011;11516;51.612;7.510;2022-10-16T04:11:54;6.63;;;3.63;;
22697;SDS011;11516;51.612;7.510;2022-10-16T04:14:19;6.93;;;3.63;;
22697;SDS011;11516;51.612;7.510;2022-10-16T04:16:45;7.88;;;3.50;;
22697;SDS011;11516;51.612;7.510;2022-10-16T04:19:11;6.55;;;3.60;;
22697;SDS011;11516;51.612;7.510;2022-10-16T04:21:36;11.27;;;4.40;;
22697;SDS011;11516;51.612;7.510;2022-10-16T04:24:05;6.63;;;3.65;;
22697;SDS011;11516;51.612;7.510;2022-10-16T04:26:31;7.90;;;3.77;;
22697;SDS011;11516;51.612;7.510;2022-10-16T04:28:57;6.70;;;2.63;;
22697;SDS011;11516;51.612;7.510;2022-10-16T04:31:22;5.30;;;2.90;;
22697;SDS011;11516;51.612;7.510;2022-10-16T04:33:48;3.30;;;2.45;;
22697;SDS011;11516;51.612;7.510;2022-10-16T04:36:13;4.75;;;2.20;;
22697;SDS011;11516;51.612;7.510;2022-10-16T04:38:39;5.72;;;2.67;;
22697;SDS011;11516;51.612;7.510;2022-10-16T04:41:05;4.53;;;2.42;;
22697;SDS011;11516;51.612;7.510;2022-10-16T04:43:32;4.63;;;2.63;;
22697;SDS011;11516;51.612;7.510;2022-10-16T04:45:58;3.40;;;2.17;;
22697;SDS011;11516;51.612;7.510;2022-10-16T04:48:23;2.15;;;1.90;;
22697;SDS011;11516;51.612;7.510;2022-10-16T04:50:49;1.73;;;1.48;;
22697;SDS011;11516;51.612;7.510;2022-10-16T04:53:15;1.77;;;1.40;;
22697;SDS011;11516;51.612;7.510;2022-10-16T04:55:41;1.35;;;1.25;;
22697;SDS011;11516;51.612;7.510;2022-10-16T04:58:07;2.53;;;1.67;;
22697;SDS011;11516;51.612;7.510;2022-10-16T05:00:33;2.33;;;1.40;;
22697;SDS011;11516;51.612;7.510;2022-10-16T05:02:58;2.07;;;1.57;;
22697;SDS011;11516;51.612;7.510;2022-10-16T05:05:25;2.60;;;2.10;;
22697;SDS011;11516;51.612;7.510;2022-10-16T05:07:51;4.32;;;2.00;;
22697;SDS011;11516;51.612;7.510;2022-10-16T05:10:17;2.60;;;2.33;;
22697;SDS011;11516;51.612;7.510;2022-10-16T05:12:43;5.57;;;2.75;;
22697;SDS011;11516;51.612;7.510;2022-10-16T05:15:09;3.10;;;1.98;;
22697;SDS011;11516;51.612;7.510;2022-10-16T05:17:35;2.50;;;1.80;;
22697;SDS011;11516;51.612;7.510;2022-10-16T05:20:01;4.73;;;3.00;;
22697;SDS011;11516;51.612;7.510;2022-10-16T05:22:28;3.28;;;2.20;;
22697;SDS011;11516;51.612;7.510;2022-10-16T05:24:53;3.63;;;2.25;;
22697;SDS011;11516;51.612;7.510;2022-10-16T05:27:19;3.70;;;2.20;;
22697;SDS011;11516;51.612;7.510;2022-10-16T05:29:45;6.63;;;3.00;;
22697;SDS011;11516;51.612;7.510;2022-10-16T05:32:12;6.50;;;3.53;;
22697;SDS011;11516;51.612;7.510;2022-10-16T05:34:38;3.73;;;2.53;;
22697;SDS011;11516;51.612;7.510;2022-10-16T05:37:04;4.27;;;2.80;;
22697;SDS011;11516;51.612;7.510;2022-10-16T05:39:29;3.50;;;2.58;;
22697;SDS011;11516;51.612;7.510;2022-10-16T05:41:55;3.78;;;2.50;;
22697;SDS011;11516;51.612;7.510;2022-10-16T05:44:21;4.03;;;2.88;;
22697;SDS011;11516;51.612;7.510;2022-10-16T05:46:46;2.53;;;2.30;;
22697;SDS011;11516;51.612;7.510;2022-10-16T05:49:12;2.07;;;1.80;;
22697;SDS011;11516;51.612;7.510;2022-10-16T05:51:38;3.60;;;2.00;;
22697;SDS011;11516;51.612;7.510;2022-10-16T05:54:03;4.70;;;2.53;;
22697;SDS011;11516;51.612;7.510;2022-10-16T05:56:29;6.03;;;3.13;;
22697;SDS011;11516;51.612;7.510;2022-10-16T05:58:56;5.20;;;2.73;;
22697;SDS011;11516;51.612;7.510;2022-10-16T06:01:22;7.40;;;4.00;;
22697;SDS011;11516;51.612;7.510;2022-10-16T06:03:49;4.30;;;2.90;;
22697;SDS011;11516;51.612;7.510;2022-10-16T06:06:16;2.65;;;2.17;;
22697;SDS011;11516;51.612;7.510;2022-10-16T06:08:45;2.22;;;1.70;;
22697;SDS011;11516;51.612;7.510;2022-10-16T06:11:13;2.72;;;1.92;;
22697;SDS011;11516;51.612;7.510;2022-10-16T06:13:41;2.30;;;2.10;;
22697;SDS011;11516;51.612;7.510;2022-10-16T06:16:07;4.03;;;2.10;;
22697;SDS011;11516;51.612;7.510;2022-10-16T06:18:34;3.63;;;2.20;;
22697;SDS011;11516;51.612;7.510;2022-10-16T06:21:06;2.23;;;1.60;;
22697;SDS011;11516;51.612;7.510;2022-10-16T06:23:45;1.35;;;1.25;;
22697;SDS011;11516;51.612;7.510;2022-10-16T06:26:15;2.50;;;1.60;;
22697;SDS011;11516;51.612;7.510;2022-10-16T06:28:42;2.92;;;1.75;;
22697;SDS011;11516;51.612;7.510;2022-10-16T06:31:09;3.80;;;1.67;;
22697;SDS011;11516;51.612;7.510;2022-10-16T06:33:36;1.67;;;1.45;;
22697;SDS011;11516;51.612;7.510;2022-10-16T06:36:03;6.72;;;2.70;;
22697;SDS011;11516;51.612;7.510;2022-10-16T06:38:30;3.33;;;2.05;;
22697;SDS011;11516;51.612;7.510;2022-10-16T06:40:57;5.15;;;2.35;;
22697;SDS011;11516;51.612;7.510;2022-10-16T06:43:23;3.63;;;1.92;;
22697;SDS011;11516;51.612;7.510;2022-10-16T06:45:55;4.20;;;1.80;;
22697;SDS011;11516;51.612;7.510;2022-10-16T06:48:22;4.22;;;1.83;;
22697;SDS011;11516;51.612;7.510;2022-10-16T06:53:51;2.20;;;1.50;;
22697;SDS011;11516;51.612;7.510;2022-10-16T06:56:22;2.08;;;1.88;;
22697;SDS011;11516;51.612;7.510;2022-10-16T06:58:50;2.53;;;1.50;;
22697;SDS011;11516;51.612;7.510;2022-10-16T07:01:16;3.00;;;1.40;;
22697;SDS011;11516;51.612;7.510;2022-10-16T07:03:44;2.78;;;2.20;;
22697;SDS011;11516;51.612;7.510;2022-10-16T07:06:11;4.57;;;2.38;;
22697;SDS011;11516;51.612;7.510;2022-10-16T07:08:40;3.00;;;2.35;;
22697;SDS011;11516;51.612;7.510;2022-10-16T07:11:08;3.43;;;2.30;;
22697;SDS011;11516;51.612;7.510;2022-10-16T07:13:35;3.67;;;1.95;;
22697;SDS011;11516;51.612;7.510;2022-10-16T07:16:12;2.25;;;1.55;;
22697;SDS011;11516;51.612;7.510;2022-10-16T07:18:40;1.70;;;1.50;;
22697;SDS011;11516;51.612;7.510;2022-10-16T07:21:08;2.10;;;1.40;;
22697;SDS011;11516;51.612;7.510;2022-10-16T07:23:35;2.23;;;1.50;;
22697;SDS011;11516;51.612;7.510;2022-10-16T07:26:02;2.40;;;1.50;;
22697;SDS011;11516;51.612;7.510;2022-10-16T07:28:28;3.22;;;1.75;;
22697;SDS011;11516;51.612;7.510;2022-10-16T07:30:54;2.30;;;1.55;;
22697;SDS011;11516;51.612;7.510;2022-10-16T07:33:19;2.15;;;1.70;;
22697;SDS011;11516;51.612;7.510;2022-10-16T07:35:52;2.85;;;1.80;;
22697;SDS011;11516;51.612;7.510;2022-10-16T07:38:19;1.95;;;1.80;;
22697;SDS011;11516;51.612;7.510;2022-10-16T07:40:46;3.80;;;1.88;;
22697;SDS011;11516;51.612;7.510;2022-10-16T07:43:12;2.17;;;1.85;;
22697;SDS011;11516;51.612;7.510;2022-10-16T07:45:40;2.25;;;1.80;;
22697;SDS011;11516;51.612;7.510;2022-10-16T07:48:15;2.88;;;1.70;;
22697;SDS011;11516;51.612;7.510;2022-10-16T07:50:41;3.00;;;1.70;;
22697;SDS011;11516;51.612;7.510;2022-10-16T07:53:07;2.20;;;1.83;;
22697;SDS011;11516;51.612;7.510;2022-10-16T07:55:33;2.00;;;1.80;;
22697;SDS011;11516;51.612;7.510;2022-10-16T07:57:58;3.17;;;1.60;;
22697;SDS011;11516;51.612;7.510;2022-10-16T08:00:24;3.93;;;1.90;;
22697;SDS011;11516;51.612;7.510;2022-10-16T08:02:49;2.80;;;1.70;;
22697;SDS011;11516;51.612;7.510;2022-10-16T08:05:15;2.80;;;1.83;;
22697;SDS011;11516;51.612;7.510;2022-10-16T08:07:50;2.45;;;1.70;;
22697;SDS011;11516;51.612;7.510;2022-10-16T08:10:19;2.28;;;1.60;;
22697;SDS011;11516;51.612;7.510;2022-10-16T08:12:47;3.80;;;2.05;;
22697;SDS011;11516;51.612;7.510;2022-10-16T08:15:12;3.03;;;1.70;;
22697;SDS011;11516;51.612;7.510;2022-10-16T08:17:38;3.97;;;1.95;;
22697;SDS011;11516;51.612;7.510;2022-10-16T08:20:04;2.05;;;1.70;;
22697;SDS011;11516;51.612;7.510;2022-10-16T08:22:30;2.72;;;1.73;;
22697;SDS011;11516;51.612;7.510;2022-10-16T08:24:56;3.13;;;1.58;;
22697;SDS011;11516;51.612;7.510;2022-10-16T08:27:21;2.58;;;1.60;;
22697;SDS011;11516;51.612;7.510;2022-10-16T08:29:48;2.75;;;1.77;;
22697;SDS011;11516;51.612;7.510;2022-10-16T08:32:14;2.70;;;1.40;;
22697;SDS011;11516;51.612;7.510;2022-10-16T08:34:39;2.60;;;1.60;;
22697;SDS011;11516;51.612;7.510;2022-10-16T08:37:05;3.00;;;1.37;;
22697;SDS011;11516;51.612;7.510;2022-10-16T08:39:32;3.70;;;1.60;;
22697;SDS011;11516;51.612;7.510;2022-10-16T08:42:02;3.70;;;1.50;;
22697;SDS011;11516;51.612;7.510;2022-10-16T08:50:39;2.88;;;1.48;;
22697;SDS011;11516;51.612;7.510;2022-10-16T08:53:06;1.80;;;1.60;;
22697;SDS011;11516;51.612;7.510;2022-10-16T08:55:39;2.75;;;1.48;;
22697;SDS011;11516;51.612;7.510;2022-10-16T08:58:12;1.33;;;1.10;;
22697;SDS011;11516;51.612;7.510;2022-10-16T09:00:40;3.27;;;1.27;;
22697;SDS011;11516;51.612;7.510;2022-10-16T09:03:13;3.35;;;1.50;;
22697;SDS011;11516;51.612;7.510;2022-10-16T09:05:52;2.58;;;1.15;;
22697;SDS011;11516;51.612;7.510;2022-10-16T09:10:58;2.67;;;1.10;;
22697;SDS011;11516;51.612;7.510;2022-10-16T09:13:50;2.90;;;1.10;;
22697;SDS011;11516;51.612;7.510;2022-10-16T09:16:30;1.60;;;0.82;;
22697;SDS011;11516;51.612;7.510;2022-10-16T09:19:09;3.10;;;1.00;;
22697;SDS011;11516;51.612;7.510;2022-10-16T09:21:44;2.20;;;1.15;;
22697;SDS011;11516;51.612;7.510;2022-10-16T09:24:14;4.20;;;1.27;;
22697;SDS011;11516;51.612;7.510;2022-10-16T09:26:42;2.70;;;1.10;;
22697;SDS011;11516;51.612;7.510;2022-10-16T09:29:18;3.23;;;1.13;;
22697;SDS011;11516;51.612;7.510;2022-10-16T09:31:46;4.05;;;1.13;;
22697;SDS011;11516;51.612;7.510;2022-10-16T09:34:17;4.07;;;1.10;;
22697;SDS011;11516;51.612;7.510;2022-10-16T09:36:46;3.05;;;1.13;;
22697;SDS011;11516;51.612;7.510;2022-10-16T09:39:12;0.93;;;0.75;;
22697;SDS011;11516;51.612;7.510;2022-10-16T09:41:38;3.40;;;1.30;;
22697;SDS011;11516;51.612;7.510;2022-10-16T09:44:15;2.25;;;1.00;;
22697;SDS011;11516;51.612;7.510;2022-10-16T09:47:05;3.03;;;0.93;;
22697;SDS011;11516;51.612;7.510;2022-10-16T09:49:49;2.50;;;0.88;;
22697;SDS011;11516;51.612;7.510;2022-10-16T09:52:20;2.75;;;0.95;;
22697;SDS011;11516;51.612;7.510;2022-10-16T09:54:53;2.25;;;0.90;;
22697;SDS011;11516;51.612;7.510;2022-10-16T09:57:48;3.10;;;1.13;;
22697;SDS011;11516;51.612;7.510;2022-10-16T10:00:17;3.30;;;1.00;;
22697;SDS011;11516;51.612;7.510;2022-10-16T10:02:44;2.25;;;0.90;;
22697;SDS011;11516;51.612;7.510;2022-10-16T10:05:47;3.53;;;1.10;;
22697;SDS011;11516;51.612;7.510;2022-10-16T10:08:04;2.42;;;1.17;;
22697;SDS011;11516;51.612;7.510;2022-10-16T10:10:32;3.25;;;1.08;;
22697;SDS011;11516;51.612;7.510;2022-10-16T10:13:01;2.70;;;0.95;;
22697;SDS011;11516;51.612;7.510;2022-10-16T10:15:27;3.00;;;1.20;;
22697;SDS011;11516;51.612;7.510;2022-10-16T10:17:59;2.70;;;1.00;;
22697;SDS011;11516;51.612;7.510;2022-10-16T10:20:32;3.13;;;1.30;;
22697;SDS011;11516;51.612;7.510;2022-10-16T10:23:19;4.28;;;0.88;;
22697;SDS011;11516;51.612;7.510;2022-10-16T10:31:18;1.98;;;1.13;;
22697;SDS011;11516;51.612;7.510;2022-10-16T10:34:03;3.20;;;1.10;;
22697;SDS011;11516;51.612;7.510;2022-10-16T10:36:36;1.67;;;0.75;;
22697;SDS011;11516;51.612;7.510;2022-10-16T10:39:06;4.85;;;1.30;;
22697;SDS011;11516;51.612;7.510;2022-10-16T10:41:53;3.33;;;1.30;;
22697;SDS011;11516;51.612;7.510;2022-10-16T10:50:33;2.53;;;0.93;;
22697;SDS011;11516;51.612;7.510;2022-10-16T10:55:43;2.47;;;1.35;;
22697;SDS011;11516;51.612;7.510;2022-10-16T10:58:21;4.93;;;1.40;;
22697;SDS011;11516;51.612;7.510;2022-10-16T11:03:45;3.37;;;1.00;;
22697;SDS011;11516;51.612;7.510;2022-10-16T11:06:34;2.85;;;0.85;;
22697;SDS011;11516;51.612;7.510;2022-10-16T11:11:52;1.15;;;0.75;;
22697;SDS011;11516;51.612;7.510;2022-10-16T11:14:31;2.28;;;1.02;;
22697;SDS011;11516;51.612;7.510;2022-10-16T11:17:08;2.83;;;0.93;;
22697;SDS011;11516;51.612;7.510;2022-10-16T11:19:42;2.45;;;1.23;;
22697;SDS011;11516;51.612;7.510;2022-10-16T11:22:17;1.83;;;0.70;;
22697;SDS011;11516;51.612;7.510;2022-10-16T11:27:43;2.13;;;1.02;;
22697;SDS011;11516;51.612;7.510;2022-10-16T11:30:26;2.90;;;0.93;;
22697;SDS011;11516;51.612;7.510;2022-10-16T11:32:56;2.95;;;1.10;;
22697;SDS011;11516;51.612;7.510;2022-10-16T11:38:09;3.13;;;1.00;;
22697;SDS011;11516;51.612;7.510;2022-10-16T11:40:51;2.70;;;1.38;;
22697;SDS011;11516;51.612;7.510;2022-10-16T11:43:22;3.95;;;1.40;;
22697;SDS011;11516;51.612;7.510;2022-10-16T11:45:57;1.25;;;0.60;;
22697;SDS011;11516;51.612;7.510;2022-10-16T11:48:41;1.88;;;1.15;;
22697;SDS011;11516;51.612;7.510;2022-10-16T11:53:58;2.95;;;1.10;;
22697;SDS011;11516;51.612;7.510;2022-10-16T11:56:25;2.67;;;1.00;;
22697;SDS011;11516;51.612;7.510;2022-10-16T12:01:37;2.63;;;1.30;;
22697;SDS011;11516;51.612;7.510;2022-10-16T12:07:04;3.42;;;1.27;;
22697;SDS011;11516;51.612;7.510;2022-10-16T12:09:36;2.73;;;1.20;;
22697;SDS011;11516;51.612;7.510;2022-10-16T12:15:02;3.63;;;1.10;;
22697;SDS011;11516;51.612;7.510;2022-10-16T12:17:35;3.70;;;1.35;;
22697;SDS011;11516;51.612;7.510;2022-10-16T12:22:40;1.53;;;1.10;;
22697;SDS011;11516;51.612;7.510;2022-10-16T12:25:22;2.60;;;1.00;;
22697;SDS011;11516;51.612;7.510;2022-10-16T12:30:28;3.47;;;1.23;;
22697;SDS011;11516;51.612;7.510;2022-10-16T12:32:56;1.90;;;1.40;;
22697;SDS011;11516;51.612;7.510;2022-10-16T12:35:46;2.20;;;1.20;;
22697;SDS011;11516;51.612;7.510;2022-10-16T12:38:19;2.80;;;1.40;;
22697;SDS011;11516;51.612;7.510;2022-10-16T12:46:01;1.80;;;1.13;;
22697;SDS011;11516;51.612;7.510;2022-10-16T12:48:29;2.17;;;1.10;;
22697;SDS011;11516;51.612;7.510;2022-10-16T12:50:55;2.30;;;0.82;;
22697;SDS011;11516;51.612;7.510;2022-10-16T12:53:22;3.28;;;1.15;;
22697;SDS011;11516;51.612;7.510;2022-10-16T12:58:43;3.10;;;1.20;;
22697;SDS011;11516;51.612;7.510;2022-10-16T13:04:23;2.30;;;1.10;;
22697;SDS011;11516;51.612;7.510;2022-10-16T13:07:33;2.08;;;1.40;;
22697;SDS011;11516;51.612;7.510;2022-10-16T13:10:14;1.90;;;1.33;;
22697;SDS011;11516;51.612;7.510;2022-10-16T13:15:52;2.17;;;1.67;;
22697;SDS011;11516;51.612;7.510;2022-10-16T13:21:58;2.50;;;1.30;;
22697;SDS011;11516;51.612;7.510;2022-10-16T13:27:26;3.45;;;1.15;;
22697;SDS011;11516;51.612;7.510;2022-10-16T13:30:00;1.88;;;1.27;;
22697;SDS011;11516;51.612;7.510;2022-10-16T13:32:34;1.40;;;0.95;;
22697;SDS011;11516;51.612;7.510;2022-10-16T13:35:00;2.28;;;1.25;;
22697;SDS011;11516;51.612;7.510;2022-10-16T13:37:26;2.65;;;1.38;;
22697;SDS011;11516;51.612;7.510;2022-10-16T13:42:50;3.65;;;2.00;;
22697;SDS011;11516;51.612;7.510;2022-10-16T13:45:18;2.78;;;1.10;;
22697;SDS011;11516;51.612;7.510;2022-10-16T13:47:45;1.98;;;1.52;;
22697;SDS011;11516;51.612;7.510;2022-10-16T13:50:12;2.83;;;1.50;;
22697;SDS011;11516;51.612;7.510;2022-10-16T13:52:39;4.47;;;1.00;;
22697;SDS011;11516;51.612;7.510;2022-10-16T13:55:13;2.65;;;1.70;;
22697;SDS011;11516;51.612;7.510;2022-10-16T13:57:48;2.33;;;1.40;;
22697;SDS011;11516;51.612;7.510;2022-10-16T14:00:23;3.23;;;1.40;;
22697;SDS011;11516;51.612;7.510;2022-10-16T14:02:57;4.90;;;3.35;;
22697;SDS011;11516;51.612;7.510;2022-10-16T14:05:48;12.50;;;5.87;;
22697;SDS011;11516;51.612;7.510;2022-10-16T14:08:24;5.07;;;3.13;;
22697;SDS011;11516;51.612;7.510;2022-10-16T14:10:58;5.53;;;2.97;;
22697;SDS011;11516;51.612;7.510;2022-10-16T14:13:38;3.05;;;2.08;;
22697;SDS011;11516;51.612;7.510;2022-10-16T14:16:20;4.20;;;2.37;;
22697;SDS011;11516;51.612;7.510;2022-10-16T14:19:00;5.07;;;2.45;;
22697;SDS011;11516;51.612;7.510;2022-10-16T14:21:29;2.88;;;1.45;;
22697;SDS011;11516;51.612;7.510;2022-10-16T14:24:22;2.65;;;1.10;;
22697;SDS011;11516;51.612;7.510;2022-10-16T14:26:51;1.85;;;0.73;;
22697;SDS011;11516;51.612;7.510;2022-10-16T14:29:20;2.67;;;1.00;;
22697;SDS011;11516;51.612;7.510;2022-10-16T14:31:59;2.05;;;0.90;;
22697;SDS011;11516;51.612;7.510;2022-10-16T14:36:58;1.90;;;0.70;;
22697;SDS011;11516;51.612;7.510;2022-10-16T14:39:27;2.58;;;0.85;;
22697;SDS011;11516;51.612;7.510;2022-10-16T14:41:55;1.67;;;0.77;;
22697;SDS011;11516;51.612;7.510;2022-10-16T14:44:27;2.10;;;0.80;;
22697;SDS011;11516;51.612;7.510;2022-10-16T14:46:56;4.43;;;0.93;;
22697;SDS011;11516;51.612;7.510;2022-10-16T14:49:22;2.92;;;0.88;;
22697;SDS011;11516;51.612;7.510;2022-10-16T14:51:49;2.30;;;1.10;;
22697;SDS011;11516;51.612;7.510;2022-10-16T14:54:15;2.88;;;0.98;;
22697;SDS011;11516;51.612;7.510;2022-10-16T15:02:00;3.20;;;1.30;;
22697;SDS011;11516;51.612;7.510;2022-10-16T15:04:47;1.98;;;0.90;;
22697;SDS011;11516;51.612;7.510;2022-10-16T15:07:16;4.32;;;0.82;;
22697;SDS011;11516;51.612;7.510;2022-10-16T15:09:42;2.42;;;1.00;;
22697;SDS011;11516;51.612;7.510;2022-10-16T15:12:08;2.50;;;0.87;;
22697;SDS011;11516;51.612;7.510;2022-10-16T15:14:34;1.90;;;1.00;;
22697;SDS011;11516;51.612;7.510;2022-10-16T15:16:59;2.22;;;1.20;;
22697;SDS011;11516;51.612;7.510;2022-10-16T15:19:25;2.65;;;1.15;;
22697;SDS011;11516;51.612;7.510;2022-10-16T15:21:50;3.30;;;1.27;;
22697;SDS011;11516;51.612;7.510;2022-10-16T15:24:18;5.47;;;2.88;;
22697;SDS011;11516;51.612;7.510;2022-10-16T15:26:44;42.15;;;31.67;;
22697;SDS011;11516;51.612;7.510;2022-10-16T15:29:13;4.72;;;2.47;;
22697;SDS011;11516;51.612;7.510;2022-10-16T15:31:39;2.60;;;1.40;;
22697;SDS011;11516;51.612;7.510;2022-10-16T15:34:13;2.78;;;1.23;;
22697;SDS011;11516;51.612;7.510;2022-10-16T15:36:43;2.83;;;1.20;;
22697;SDS011;11516;51.612;7.510;2022-10-16T15:39:18;4.07;;;1.40;;
22697;SDS011;11516;51.612;7.510;2022-10-16T15:41:47;2.10;;;1.33;;
22697;SDS011;11516;51.612;7.510;2022-10-16T15:44:15;2.53;;;1.35;;
22697;SDS011;11516;51.612;7.510;2022-10-16T15:46:42;3.20;;;1.30;;
22697;SDS011;11516;51.612;7.510;2022-10-16T15:49:07;4.00;;;1.77;;
22697;SDS011;11516;51.612;7.510;2022-10-16T15:51:34;3.60;;;1.48;;
22697;SDS011;11516;51.612;7.510;2022-10-16T15:54:03;2.85;;;1.20;;
22697;SDS011;11516;51.612;7.510;2022-10-16T15:56:29;2.85;;;1.63;;
22697;SDS011;11516;51.612;7.510;2022-10-16T15:58:57;3.03;;;1.42;;
22697;SDS011;11516;51.612;7.510;2022-10-16T16:01:24;7.07;;;2.45;;
22697;SDS011;11516;51.612;7.510;2022-10-16T16:03:54;4.18;;;1.80;;
22697;SDS011;11516;51.612;7.510;2022-10-16T16:06:21;3.40;;;2.10;;
22697;SDS011;11516;51.612;7.510;2022-10-16T16:08:48;4.35;;;2.30;;
22697;SDS011;11516;51.612;7.510;2022-10-16T16:11:15;5.40;;;2.20;;
22697;SDS011;11516;51.612;7.510;2022-10-16T16:13:48;5.47;;;2.57;;
22697;SDS011;11516;51.612;7.510;2022-10-16T16:16:23;5.45;;;1.98;;
22697;SDS011;11516;51.612;7.510;2022-10-16T16:18:52;5.00;;;2.05;;
22697;SDS011;11516;51.612;7.510;2022-10-16T16:21:18;3.27;;;2.00;;
22697;SDS011;11516;51.612;7.510;2022-10-16T16:23:43;2.80;;;1.83;;
22697;SDS011;11516;51.612;7.510;2022-10-16T16:28:52;12.82;;;8.07;;
22697;SDS011;11516;51.612;7.510;2022-10-16T16:31:19;9.35;;;5.97;;
22697;SDS011;11516;51.612;7.510;2022-10-16T16:33:45;28.58;;;21.42;;
22697;SDS011;11516;51.612;7.510;2022-10-16T16:36:11;13.35;;;9.90;;
22697;SDS011;11516;51.612;7.510;2022-10-16T16:38:36;8.35;;;3.72;;
22697;SDS011;11516;51.612;7.510;2022-10-16T16:41:12;5.85;;;3.22;;
22697;SDS011;11516;51.612;7.510;2022-10-16T16:43:42;5.07;;;2.45;;
22697;SDS011;11516;51.612;7.510;2022-10-16T16:46:08;4.80;;;2.40;;
22697;SDS011;11516;51.612;7.510;2022-10-16T16:48:35;5.77;;;2.63;;